Time,TemperatureF,DewpointF,PressureIn,WindDirection,WindDirectionDegrees,WindSpeedMPH,WindSpeedGustMPH,Humidity,HourlyPrecipIn,Conditions,Clouds,dailyrainin,SoftwareType,DateUTC
2013-02-06 00:04:00,3.6,-0.2,29.85,WSW,247,0.0,-999.0,84,-99.99,,,0.00,Acu-Link.com,2013-02-06 05:04:00,
2013-02-06 00:20:00,3.6,-0.2,29.85,WSW,247,0.0,-999.0,84,-99.99,,,0.00,Acu-Link.com,2013-02-06 05:20:00,
2013-02-06 00:35:00,3.6,-0.7,29.84,WSW,247,0.0,-999.0,82,-99.99,,,0.00,Acu-Link.com,2013-02-06 05:35:00,
2013-02-06 00:50:00,3.2,-1.0,29.83,WSW,247,0.0,-999.0,82,-99.99,,,0.00,Acu-Link.com,2013-02-06 05:50:00,
2013-02-06 01:05:00,3.2,-0.8,29.83,WSW,247,0.0,-999.0,83,-99.99,,,0.00,Acu-Link.com,2013-02-06 06:05:00,
2013-02-06 01:20:00,3.0,-0.4,29.82,WSW,247,0.0,-999.0,85,-99.99,,,0.00,Acu-Link.com,2013-02-06 06:20:00,
2013-02-06 01:36:00,3.4,-0.3,29.82,WSW,247,0.0,-999.0,84,-99.99,,,0.00,Acu-Link.com,2013-02-06 06:36:00,
2013-02-06 01:51:00,3.7,0.8,29.82,WSW,247,0.0,-999.0,87,-99.99,,,0.00,Acu-Link.com,2013-02-06 06:51:00,
2013-02-06 02:06:00,4.1,0.6,29.82,WSW,247,0.0,-999.0,85,-99.99,,,0.00,Acu-Link.com,2013-02-06 07:06:00,
2013-02-06 02:21:00,4.3,0.8,29.82,WSW,247,0.0,-999.0,85,-99.99,,,0.00,Acu-Link.com,2013-02-06 07:21:00,
2013-02-06 02:36:00,4.3,0.8,29.82,WSW,247,0.0,-999.0,85,-99.99,,,0.00,Acu-Link.com,2013-02-06 07:36:00,
2013-02-06 02:52:00,4.5,1.2,29.81,WSW,247,0.0,-999.0,86,-99.99,,,0.00,Acu-Link.com,2013-02-06 07:52:00,
2013-02-06 03:07:00,4.8,1.8,29.81,WSW,247,0.0,-999.0,87,-99.99,,,0.00,Acu-Link.com,2013-02-06 08:07:00,
2013-02-06 03:22:00,5.0,2.2,29.80,WSW,247,0.0,-999.0,88,-99.99,,,0.00,Acu-Link.com,2013-02-06 08:22:00,
2013-02-06 03:37:00,5.2,2.4,29.80,WSW,247,0.0,-999.0,88,-99.99,,,0.00,Acu-Link.com,2013-02-06 08:37:00,
2013-02-06 03:53:00,5.2,2.4,29.80,WSW,247,0.0,-999.0,88,-99.99,,,0.00,Acu-Link.com,2013-02-06 08:53:00,
2013-02-06 04:08:00,5.4,2.6,29.80,WSW,247,0.0,-999.0,88,-99.99,,,0.00,Acu-Link.com,2013-02-06 09:08:00,
2013-02-06 04:23:00,5.5,3.0,29.80,WSW,247,0.0,-999.0,89,-99.99,,,0.00,Acu-Link.com,2013-02-06 09:23:00,
2013-02-06 04:38:00,5.7,3.2,29.80,WSW,247,0.0,-999.0,89,-99.99,,,0.00,Acu-Link.com,2013-02-06 09:38:00,
2013-02-06 04:53:00,5.9,3.4,29.80,WSW,247,0.0,-999.0,89,-99.99,,,0.00,Acu-Link.com,2013-02-06 09:53:00,
2013-02-06 05:09:00,6.1,3.8,29.80,WSW,247,0.0,-999.0,90,-99.99,,,0.00,Acu-Link.com,2013-02-06 10:09:00,
2013-02-06 05:24:00,6.1,3.3,29.81,WSW,247,0.0,-999.0,88,-99.99,,,0.00,Acu-Link.com,2013-02-06 10:24:00,
2013-02-06 05:39:00,6.3,3.2,29.81,WSW,247,0.0,-999.0,87,-99.99,,,0.00,Acu-Link.com,2013-02-06 10:39:00,
2013-02-06 05:54:00,6.3,3.2,29.81,WSW,247,0.0,-999.0,87,-99.99,,,0.00,Acu-Link.com,2013-02-06 10:54:00,
2013-02-06 06:09:00,6.3,3.2,29.81,WSW,247,0.0,-999.0,87,-99.99,,,0.00,Acu-Link.com,2013-02-06 11:09:00,
2013-02-06 06:25:00,6.3,3.2,29.82,WSW,247,0.0,-999.0,87,-99.99,,,0.00,Acu-Link.com,2013-02-06 11:25:00,
2013-02-06 06:40:00,5.7,2.5,29.83,WSW,247,0.0,-999.0,86,-99.99,,,0.00,Acu-Link.com,2013-02-06 11:40:00,
2013-02-06 06:55:00,5.2,1.4,29.83,WSW,247,0.0,-999.0,84,-99.99,,,0.00,Acu-Link.com,2013-02-06 11:55:00,
2013-02-06 07:10:00,4.6,0.6,29.83,WSW,247,0.0,-999.0,83,-99.99,,,0.00,Acu-Link.com,2013-02-06 12:10:00,
2013-02-06 07:25:00,4.8,3.0,29.85,WSW,247,0.0,-999.0,92,-99.99,,,0.00,Acu-Link.com,2013-02-06 12:25:00,
2013-02-06 07:41:00,6.4,6.0,29.85,WSW,247,0.0,-999.0,98,-99.99,,,0.00,Acu-Link.com,2013-02-06 12:41:00,
2013-02-06 07:56:00,8.1,7.6,29.86,WSW,247,0.0,-999.0,98,-99.99,,,0.00,Acu-Link.com,2013-02-06 12:56:00,
2013-02-06 08:11:00,10.0,9.6,29.87,WSW,247,1.1,-999.0,98,-99.99,,,0.00,Acu-Link.com,2013-02-06 13:11:00,
2013-02-06 08:26:00,11.7,10.7,29.87,WSW,247,0.0,-999.0,96,-99.99,,,0.00,Acu-Link.com,2013-02-06 13:26:00,
2013-02-06 08:41:00,13.1,9.7,29.88,WSW,247,0.0,-999.0,86,-99.99,,,0.00,Acu-Link.com,2013-02-06 13:41:00,
2013-02-06 08:57:00,13.6,9.2,29.88,SW,225,1.6,-999.0,82,-99.99,,,0.00,Acu-Link.com,2013-02-06 13:57:00,
2013-02-06 09:12:00,14.4,8.5,29.89,South,180,3.1,-999.0,77,-99.99,,,0.00,Acu-Link.com,2013-02-06 14:12:00,
2013-02-06 09:27:00,15.4,8.7,29.90,SSW,202,1.6,-999.0,74,-99.99,,,0.00,Acu-Link.com,2013-02-06 14:27:00,
2013-02-06 09:42:00,16.2,8.7,29.91,SSW,202,2.2,-999.0,72,-99.99,,,0.00,Acu-Link.com,2013-02-06 14:42:00,
2013-02-06 09:57:00,16.0,8.6,29.91,South,180,2.7,-999.0,72,-99.99,,,0.00,Acu-Link.com,2013-02-06 14:57:00,
2013-02-06 10:13:00,15.4,9.3,29.93,ESE,112,2.7,-999.0,76,-99.99,,,0.00,Acu-Link.com,2013-02-06 15:13:00,
2013-02-06 10:28:00,14.9,4.6,29.94,North,0,3.1,-999.0,63,-99.99,,,0.00,Acu-Link.com,2013-02-06 15:28:00,
2013-02-06 10:43:00,15.6,3.1,29.94,East,90,2.7,-999.0,57,-99.99,,,0.00,Acu-Link.com,2013-02-06 15:43:00,
2013-02-06 10:58:00,15.6,2.0,29.96,SW,225,4.7,-999.0,54,-99.99,,,0.00,Acu-Link.com,2013-02-06 15:58:00,
2013-02-06 11:13:00,16.5,1.6,29.97,SW,225,2.2,-999.0,51,-99.99,,,0.00,Acu-Link.com,2013-02-06 16:13:00,
2013-02-06 11:29:00,15.6,-2.8,29.98,SSW,202,3.8,-999.0,43,-99.99,,,0.00,Acu-Link.com,2013-02-06 16:29:00,
2013-02-06 11:44:00,16.0,-1.6,29.99,SSE,157,2.7,-999.0,45,-99.99,,,0.00,Acu-Link.com,2013-02-06 16:44:00,
2013-02-06 11:59:00,14.5,-4.3,30.00,North,0,3.1,-999.0,42,-99.99,,,0.00,Acu-Link.com,2013-02-06 16:59:00,
2013-02-06 12:14:00,14.9,-5.5,30.01,SW,225,3.8,-999.0,39,-99.99,,,0.00,Acu-Link.com,2013-02-06 17:14:00,
2013-02-06 12:29:00,14.4,-6.0,30.02,SW,225,4.3,-999.0,39,-99.99,,,0.00,Acu-Link.com,2013-02-06 17:29:00,
2013-02-06 12:45:00,14.2,-5.1,30.02,NNW,337,4.7,-999.0,41,-99.99,,,0.00,Acu-Link.com,2013-02-06 17:45:00,
2013-02-06 13:00:00,13.8,-6.0,30.03,North,0,3.8,-999.0,40,-99.99,,,0.00,Acu-Link.com,2013-02-06 18:00:00,
2013-02-06 13:15:00,13.6,-7.7,30.04,North,0,1.6,-999.0,37,-99.99,,,0.00,Acu-Link.com,2013-02-06 18:15:00,
2013-02-06 13:30:00,12.0,-9.2,30.05,SE,135,3.1,-999.0,37,-99.99,,,0.00,Acu-Link.com,2013-02-06 18:30:00,
2013-02-06 13:45:00,11.1,-9.5,30.06,North,0,4.7,-999.0,38,-99.99,,,0.00,Acu-Link.com,2013-02-06 18:45:00,
2013-02-06 14:01:00,10.2,-9.8,30.06,North,0,3.1,-999.0,39,-99.99,,,0.00,Acu-Link.com,2013-02-06 19:01:00,
2013-02-06 14:16:00,9.7,-10.2,30.07,North,0,4.7,-999.0,39,-99.99,,,0.00,Acu-Link.com,2013-02-06 19:16:00,
2013-02-06 14:31:00,9.9,-10.1,30.08,North,0,3.1,-999.0,39,-99.99,,,0.00,Acu-Link.com,2013-02-06 19:31:00,
2013-02-06 14:46:00,9.0,-10.4,30.08,North,0,6.3,-999.0,40,-99.99,,,0.00,Acu-Link.com,2013-02-06 19:46:00,
2013-02-06 15:01:00,9.0,-10.4,30.09,North,0,6.3,-999.0,40,-99.99,,,0.00,Acu-Link.com,2013-02-06 20:01:00,
2013-02-06 15:17:00,8.2,-10.5,30.10,North,0,4.3,-999.0,41,-99.99,,,0.00,Acu-Link.com,2013-02-06 20:17:00,
2013-02-06 15:32:00,7.5,-10.2,30.11,North,0,3.1,-999.0,43,-99.99,,,0.00,Acu-Link.com,2013-02-06 20:32:00,
2013-02-06 15:47:00,7.2,-10.6,30.13,ESE,112,6.7,-999.0,43,-99.99,,,0.00,Acu-Link.com,2013-02-06 20:47:00,
2013-02-06 16:02:00,7.0,-10.3,30.14,East,90,3.1,-999.0,44,-99.99,,,0.00,Acu-Link.com,2013-02-06 21:02:00,
2013-02-06 16:17:00,6.1,-10.7,30.15,NE,45,3.8,-999.0,45,-99.99,,,0.00,Acu-Link.com,2013-02-06 21:17:00,
2013-02-06 16:33:00,5.5,-11.1,30.16,SW,225,5.8,-999.0,45,-99.99,,,0.00,Acu-Link.com,2013-02-06 21:33:00,
2013-02-06 16:48:00,4.5,-12.1,30.17,North,0,0.0,-999.0,45,-99.99,,,0.00,Acu-Link.com,2013-02-06 21:48:00,
2013-02-06 17:03:00,3.4,-13.1,30.18,SW,225,2.7,-999.0,45,-99.99,,,0.00,Acu-Link.com,2013-02-06 22:03:00,
2013-02-06 17:18:00,2.7,-12.9,30.19,SW,225,3.1,-999.0,47,-99.99,,,0.00,Acu-Link.com,2013-02-06 22:18:00,
2013-02-06 17:33:00,1.9,-13.6,30.20,SW,225,0.0,-999.0,47,-99.99,,,0.00,Acu-Link.com,2013-02-06 22:33:00,
2013-02-06 17:49:00,1.6,-13.5,30.21,SW,225,0.0,-999.0,48,-99.99,,,0.00,Acu-Link.com,2013-02-06 22:49:00,
2013-02-06 18:04:00,1.0,-13.6,30.22,SW,225,0.0,-999.0,49,-99.99,,,0.00,Acu-Link.com,2013-02-06 23:04:00,
2013-02-06 18:19:00,0.9,-13.8,30.23,SW,225,1.1,-999.0,49,-99.99,,,0.00,Acu-Link.com,2013-02-06 23:19:00,
2013-02-06 18:34:00,0.5,-14.5,30.24,SW,225,2.2,-999.0,48,-99.99,,,0.00,Acu-Link.com,2013-02-06 23:34:00,
2013-02-06 18:49:00,0.0,-15.0,30.25,SW,225,1.1,-999.0,48,-99.99,,,0.00,Acu-Link.com,2013-02-06 23:49:00,
2013-02-06 19:05:00,-0.6,-15.1,30.25,SW,225,2.2,-999.0,49,-99.99,,,0.00,Acu-Link.com,2013-02-07 00:05:00,
2013-02-06 19:20:00,-0.8,-14.9,30.26,SW,225,0.0,-999.0,50,-99.99,,,0.00,Acu-Link.com,2013-02-07 00:20:00,
2013-02-06 19:35:00,-1.1,-15.2,30.26,SW,225,1.6,-999.0,50,-99.99,,,0.00,Acu-Link.com,2013-02-07 00:35:00,
2013-02-06 19:50:00,-1.7,-15.3,30.28,SW,225,0.0,-999.0,51,-99.99,,,0.00,Acu-Link.com,2013-02-07 00:50:00,
2013-02-06 20:05:00,-1.8,-15.5,30.28,SW,225,0.0,-999.0,51,-99.99,,,0.00,Acu-Link.com,2013-02-07 01:05:00,
2013-02-06 20:21:00,-2.2,-15.5,30.28,SW,225,0.0,-999.0,52,-99.99,,,0.00,Acu-Link.com,2013-02-07 01:21:00,
2013-02-06 20:36:00,-2.4,-15.6,30.29,SW,225,1.1,-999.0,52,-99.99,,,0.00,Acu-Link.com,2013-02-07 01:36:00,
2013-02-06 20:51:00,-2.6,-15.4,30.30,SW,225,0.0,-999.0,53,-99.99,,,0.00,Acu-Link.com,2013-02-07 01:51:00,
2013-02-06 21:06:00,-3.5,-15.9,30.31,SW,225,0.0,-999.0,54,-99.99,,,0.00,Acu-Link.com,2013-02-07 02:06:00,
2013-02-06 21:21:00,-4.4,-16.0,30.32,SW,225,0.0,-999.0,56,-99.99,,,0.00,Acu-Link.com,2013-02-07 02:21:00,
2013-02-06 21:37:00,-3.8,-15.5,30.33,SW,225,0.0,-999.0,56,-99.99,,,0.00,Acu-Link.com,2013-02-07 02:37:00,
2013-02-06 21:52:00,-4.9,-16.5,30.33,SW,225,0.0,-999.0,56,-99.99,,,0.00,Acu-Link.com,2013-02-07 02:52:00,
2013-02-06 22:07:00,-5.3,-16.5,30.33,SW,225,0.0,-999.0,57,-99.99,,,0.00,Acu-Link.com,2013-02-07 03:07:00,
2013-02-06 22:22:00,-4.5,-15.5,30.33,SW,225,1.6,-999.0,58,-99.99,,,0.00,Acu-Link.com,2013-02-07 03:22:00,
2013-02-06 22:37:00,-4.2,-15.2,30.33,SW,225,2.7,-999.0,58,-99.99,,,0.00,Acu-Link.com,2013-02-07 03:37:00,
2013-02-06 23:08:00,-4.2,-15.5,30.34,North,0,1.6,-999.0,57,-99.99,,,0.00,Acu-Link.com,2013-02-07 04:08:00,
2013-02-06 23:23:00,-4.4,-15.7,30.34,North,0,3.8,-999.0,57,-99.99,,,0.00,Acu-Link.com,2013-02-07 04:23:00,
2013-02-06 23:38:00,-4.7,-16.4,30.35,North,0,2.2,-999.0,56,-99.99,,,0.00,Acu-Link.com,2013-02-07 04:38:00,
2013-02-06 23:53:00,-4.9,-16.5,30.35,SW,225,3.8,-999.0,56,-99.99,,,0.00,Acu-Link.com,2013-02-07 04:53:00,